createdAt,value
2017-08-23T00:01:06.971Z,16.20
2017-08-23T00:03:34.475Z,16.20
2017-08-23T00:06:01.983Z,16.10
2017-08-23T00:08:29.462Z,16.10
2017-08-23T00:10:56.974Z,16.00
2017-08-23T00:13:24.451Z,16.00
2017-08-23T00:15:53.909Z,16.00
2017-08-23T00:18:21.414Z,16.00
2017-08-23T00:20:48.899Z,16.00
2017-08-23T00:23:16.375Z,16.00
2017-08-23T00:25:43.874Z,16.00
2017-08-23T00:28:11.351Z,16.00
2017-08-23T00:30:38.857Z,16.00
2017-08-23T00:33:06.338Z,15.90
2017-08-23T00:35:33.838Z,15.80
2017-08-23T00:38:01.306Z,15.80
2017-08-23T00:40:29.730Z,15.80
2017-08-23T00:42:57.226Z,15.70
2017-08-23T00:45:24.706Z,15.70
2017-08-23T00:47:52.212Z,15.70
2017-08-23T00:50:19.764Z,15.70
2017-08-23T00:52:47.266Z,15.70
2017-08-23T00:55:14.746Z,15.60
2017-08-23T00:57:44.183Z,15.60
2017-08-23T01:00:11.663Z,15.60
2017-08-23T01:02:39.154Z,15.60
2017-08-23T01:05:06.640Z,15.60
2017-08-23T01:07:34.128Z,15.60
2017-08-23T01:10:01.607Z,15.60
2017-08-23T01:12:30.091Z,15.60
2017-08-23T01:14:58.480Z,15.60
2017-08-23T01:17:25.975Z,15.50
2017-08-23T01:19:54.396Z,15.50
2017-08-23T01:22:22.818Z,15.50
2017-08-23T01:24:50.305Z,15.50
2017-08-23T01:27:17.799Z,15.50
2017-08-23T01:29:47.234Z,15.50
2017-08-23T01:32:14.721Z,15.50
2017-08-23T01:34:42.220Z,15.50
2017-08-23T01:37:09.698Z,15.50
2017-08-23T01:39:37.165Z,15.50
2017-08-23T01:42:04.666Z,15.50
2017-08-23T01:44:32.138Z,15.50
2017-08-23T01:46:59.659Z,15.50
2017-08-23T01:49:28.070Z,15.50
2017-08-23T01:51:56.506Z,15.40
2017-08-23T01:54:23.994Z,15.40
2017-08-23T01:56:51.485Z,15.40
2017-08-23T01:59:18.954Z,15.40
2017-08-23T02:01:46.454Z,15.40
2017-08-23T02:04:13.924Z,15.40
2017-08-23T02:06:41.655Z,15.30
2017-08-23T02:09:09.130Z,15.20
2017-08-23T02:11:38.566Z,15.20
2017-08-23T02:14:06.055Z,15.20
2017-08-23T02:16:33.559Z,15.10
2017-08-23T02:19:01.047Z,15.10
2017-08-23T02:21:28.550Z,15.00
2017-08-23T02:23:56.027Z,15.10
2017-08-23T02:26:23.512Z,15.10
2017-08-23T02:28:51.010Z,15.00
2017-08-23T02:31:18.493Z,15.00
2017-08-23T02:33:46.002Z,14.90
2017-08-23T02:36:13.482Z,14.90
2017-08-23T02:38:41.004Z,14.80
2017-08-23T02:41:08.506Z,14.90
2017-08-23T02:43:35.978Z,14.80
2017-08-23T02:46:03.490Z,14.80
2017-08-23T02:48:30.971Z,14.80
2017-08-23T02:51:00.275Z,14.70
2017-08-23T02:53:27.758Z,14.80
2017-08-23T02:55:55.254Z,14.80
2017-08-23T02:58:23.774Z,14.70
2017-08-23T03:00:51.300Z,14.70
2017-08-23T03:03:18.794Z,14.70
2017-08-23T03:05:46.280Z,14.70
2017-08-23T03:08:14.733Z,14.70
2017-08-23T03:10:42.235Z,14.70
2017-08-23T03:13:09.734Z,14.60
2017-08-23T03:15:37.242Z,14.60
2017-08-23T03:18:04.736Z,14.50
2017-08-23T03:20:32.218Z,14.50
2017-08-23T03:22:59.722Z,14.50
2017-08-23T03:25:27.216Z,14.50
2017-08-23T03:27:54.731Z,14.40
2017-08-23T03:30:22.211Z,14.40
2017-08-23T03:32:49.722Z,14.40
2017-08-23T03:35:17.211Z,14.30
2017-08-23T03:37:44.722Z,14.30
2017-08-23T03:40:12.214Z,14.30
2017-08-23T03:42:39.717Z,14.20
2017-08-23T03:45:07.212Z,14.20
2017-08-23T03:47:34.718Z,14.20
2017-08-23T03:50:02.206Z,14.20
2017-08-23T03:52:32.650Z,14.20
2017-08-23T03:55:00.138Z,14.20
2017-08-23T03:57:27.658Z,14.20
2017-08-23T03:59:55.157Z,14.20
2017-08-23T04:02:22.660Z,14.20
2017-08-23T04:04:50.161Z,14.20
2017-08-23T04:07:17.651Z,14.20
2017-08-23T04:09:45.162Z,14.10
2017-08-23T04:12:12.658Z,14.20
2017-08-23T04:14:40.194Z,14.10
2017-08-23T04:17:09.621Z,14.20
2017-08-23T04:19:37.118Z,14.20
2017-08-23T04:22:04.642Z,14.10
2017-08-23T04:24:33.070Z,14.20
2017-08-23T04:27:00.587Z,14.10
2017-08-23T04:29:28.075Z,14.10
2017-08-23T04:31:55.586Z,14.10
2017-08-23T04:34:23.086Z,14.10
2017-08-23T04:36:50.617Z,14.10
2017-08-23T04:39:18.126Z,14.10
2017-08-23T04:41:45.629Z,14.10
2017-08-23T04:44:13.130Z,14.20
2017-08-23T04:46:40.668Z,14.20
2017-08-23T04:49:08.222Z,14.20
2017-08-23T04:51:37.666Z,14.20
2017-08-23T04:54:05.146Z,14.20
2017-08-23T04:56:32.659Z,14.20
2017-08-23T04:59:00.143Z,14.30
2017-08-23T05:01:29.585Z,14.30
2017-08-23T05:03:57.114Z,14.30
2017-08-23T05:06:24.613Z,14.30
2017-08-23T05:08:53.038Z,14.30
2017-08-23T05:11:20.537Z,14.40
2017-08-23T05:13:48.022Z,14.40
2017-08-23T05:16:15.531Z,14.40
2017-08-23T05:18:43.006Z,14.50
2017-08-23T05:21:10.521Z,14.50
2017-08-23T05:23:38.034Z,14.50
2017-08-23T05:26:06.484Z,14.50
2017-08-23T05:28:34.016Z,14.50
2017-08-23T05:31:01.507Z,14.50
2017-08-23T05:33:29.022Z,14.60
2017-08-23T05:35:56.595Z,14.70
2017-08-23T05:38:24.095Z,14.70
2017-08-23T05:40:51.607Z,14.70
2017-08-23T05:43:19.103Z,14.60
2017-08-23T05:45:46.608Z,14.70
2017-08-23T05:48:14.093Z,14.70
2017-08-23T05:50:41.590Z,14.70
2017-08-23T05:53:09.074Z,14.70
2017-08-23T05:55:36.564Z,14.70
2017-08-23T05:58:04.067Z,14.80
2017-08-23T06:00:31.574Z,14.90
2017-08-23T06:02:59.059Z,15.00
2017-08-23T06:05:26.566Z,15.00
2017-08-23T06:07:54.067Z,15.00
2017-08-23T06:10:21.552Z,14.90
2017-08-23T06:12:49.050Z,14.90
2017-08-23T06:15:18.555Z,14.90
2017-08-23T06:17:46.054Z,15.00
2017-08-23T06:20:13.544Z,15.00
2017-08-23T06:22:41.038Z,15.00
2017-08-23T06:25:08.563Z,15.00
2017-08-23T06:27:36.062Z,15.20
2017-08-23T06:30:03.567Z,15.30
2017-08-23T06:32:31.067Z,15.40
2017-08-23T06:34:58.570Z,15.40
2017-08-23T06:37:26.998Z,15.50
2017-08-23T06:39:54.486Z,15.50
2017-08-23T06:42:21.983Z,15.50
2017-08-23T06:44:49.486Z,15.50
2017-08-23T06:47:16.997Z,15.50
2017-08-23T06:49:45.422Z,15.50
2017-08-23T06:52:12.918Z,15.60
2017-08-23T06:54:40.425Z,15.70
2017-08-23T06:57:07.920Z,15.80
2017-08-23T06:59:35.431Z,15.80
2017-08-23T07:02:03.863Z,15.90
2017-08-23T07:04:31.378Z,15.90
2017-08-23T07:06:58.850Z,15.90
2017-08-23T07:09:26.339Z,15.90
2017-08-23T07:11:53.858Z,16.00
2017-08-23T07:14:21.364Z,16.10
2017-08-23T07:16:48.854Z,16.10
2017-08-23T07:19:16.359Z,16.20
2017-08-23T07:21:43.842Z,16.20
2017-08-23T07:24:11.349Z,16.40
2017-08-23T07:26:38.826Z,16.50
2017-08-23T07:29:06.340Z,16.60
2017-08-23T07:31:34.778Z,16.70
2017-08-23T07:34:02.302Z,16.80
2017-08-23T07:36:29.787Z,16.90
2017-08-23T07:38:57.266Z,16.90
2017-08-23T07:41:25.718Z,17.00
2017-08-23T07:43:53.202Z,16.90
2017-08-23T07:46:20.707Z,17.00
2017-08-23T07:48:48.190Z,17.00
2017-08-23T07:51:15.709Z,17.00
2017-08-23T07:53:43.243Z,17.10
2017-08-23T07:56:11.699Z,17.30
2017-08-23T07:58:40.154Z,17.30
2017-08-23T08:01:07.664Z,17.30
2017-08-23T08:03:35.171Z,17.40
2017-08-23T08:06:02.650Z,17.50
2017-08-23T08:08:30.146Z,17.60
2017-08-23T08:10:57.654Z,17.70
2017-08-23T08:13:25.139Z,17.80
2017-08-23T08:15:52.651Z,17.80
2017-08-23T08:18:20.152Z,17.90
2017-08-23T08:20:47.666Z,17.90
2017-08-23T08:23:16.099Z,18.10
2017-08-23T08:25:43.606Z,18.20
2017-08-23T08:28:11.102Z,18.20
2017-08-23T08:30:38.630Z,18.30
2017-08-23T08:33:06.122Z,18.40
2017-08-23T08:35:33.623Z,18.50
2017-08-23T08:38:01.120Z,18.60
2017-08-23T08:40:28.638Z,18.70
2017-08-23T08:42:56.151Z,18.80
2017-08-23T08:45:23.646Z,19.00
2017-08-23T08:47:52.097Z,19.00
2017-08-23T08:50:19.606Z,19.10
2017-08-23T08:52:47.095Z,19.20
2017-08-23T08:55:14.606Z,19.30
2017-08-23T08:57:42.094Z,19.30
2017-08-23T09:00:11.546Z,19.40
2017-08-23T09:02:39.046Z,19.50
2017-08-23T09:05:06.555Z,19.60
2017-08-23T09:07:34.059Z,19.70
2017-08-23T09:10:02.499Z,19.80
2017-08-23T09:12:30.322Z,19.80
2017-08-23T09:14:57.812Z,19.90
2017-08-23T09:17:25.322Z,19.90
2017-08-23T09:19:52.817Z,19.90
2017-08-23T09:22:20.310Z,20.00
2017-08-23T09:24:47.806Z,20.10
2017-08-23T09:27:15.298Z,20.20
2017-08-23T09:29:42.831Z,20.20
2017-08-23T09:32:10.339Z,20.20
2017-08-23T09:34:37.848Z,20.30
2017-08-23T09:37:05.330Z,20.40
2017-08-23T09:39:32.826Z,20.60
2017-08-23T09:42:00.311Z,20.70
2017-08-23T09:44:27.825Z,20.70
2017-08-23T09:46:56.206Z,20.80
2017-08-23T09:49:23.716Z,20.80
2017-08-23T09:51:51.207Z,21.00
2017-08-23T09:54:19.629Z,21.00
2017-08-23T09:56:47.118Z,21.10
2017-08-23T09:59:14.624Z,21.10
2017-08-23T10:01:42.118Z,21.20
2017-08-23T10:04:09.595Z,21.30
2017-08-23T10:06:37.093Z,21.40
2017-08-23T10:09:04.650Z,21.30
2017-08-23T10:11:32.172Z,21.50
2017-08-23T10:13:59.658Z,21.60
2017-08-23T10:16:27.172Z,21.70
2017-08-23T10:18:54.659Z,21.70
2017-08-23T10:21:22.152Z,21.70
2017-08-23T10:23:49.648Z,21.80
2017-08-23T10:26:17.156Z,21.90
2017-08-23T10:28:44.704Z,21.80
2017-08-23T10:31:13.090Z,22.00
2017-08-23T10:33:40.607Z,22.10
2017-08-23T10:36:08.115Z,22.20
2017-08-23T10:38:36.503Z,22.30
2017-08-23T10:41:03.991Z,22.30
2017-08-23T10:43:31.496Z,22.50
2017-08-23T10:45:58.979Z,22.50
2017-08-23T10:48:26.483Z,22.60
2017-08-23T10:50:53.970Z,22.60
2017-08-23T10:53:23.422Z,22.70
2017-08-23T10:55:50.910Z,22.80
2017-08-23T10:58:18.409Z,22.80
2017-08-23T11:00:46.843Z,22.90
2017-08-23T11:03:14.330Z,22.90
2017-08-23T11:05:41.844Z,23.00
2017-08-23T11:08:09.326Z,23.10
2017-08-23T11:10:36.826Z,23.10
2017-08-23T11:13:04.316Z,23.10
2017-08-23T11:15:31.831Z,23.10
2017-08-23T11:18:00.276Z,23.20
2017-08-23T11:20:27.763Z,23.30
2017-08-23T11:22:56.202Z,23.30
2017-08-23T11:25:23.687Z,23.40
2017-08-23T11:27:51.195Z,23.50
2017-08-23T11:30:18.675Z,23.40
2017-08-23T11:32:46.174Z,23.40
2017-08-23T11:35:13.664Z,23.60
2017-08-23T11:37:43.097Z,23.60
2017-08-23T11:40:10.594Z,23.60
2017-08-23T11:42:38.130Z,23.70
2017-08-23T11:45:05.626Z,23.80
2017-08-23T11:47:33.142Z,23.80
2017-08-23T11:50:00.639Z,24.00
2017-08-23T11:52:28.146Z,24.10
2017-08-23T11:54:55.643Z,24.30
2017-08-23T11:57:23.162Z,24.30
2017-08-23T11:59:50.666Z,24.40
2017-08-23T12:02:18.214Z,24.40
2017-08-23T12:04:45.682Z,24.50
2017-08-23T12:07:13.167Z,24.50
2017-08-23T12:09:42.594Z,24.50
2017-08-23T12:12:10.078Z,24.50
2017-08-23T12:14:37.702Z,24.60
2017-08-23T12:17:05.191Z,24.60
2017-08-23T12:19:32.682Z,24.70
2017-08-23T12:22:01.139Z,24.70
2017-08-23T12:24:28.635Z,24.80
2017-08-23T12:26:56.164Z,24.80
2017-08-23T12:29:23.691Z,24.80
2017-08-23T12:31:51.174Z,24.80
2017-08-23T12:34:18.677Z,25.00
2017-08-23T12:36:46.169Z,25.00
2017-08-23T12:39:13.660Z,25.00
2017-08-23T12:41:41.146Z,25.00
2017-08-23T12:44:08.658Z,25.00
2017-08-23T12:46:36.155Z,25.00
2017-08-23T12:49:04.673Z,25.10
2017-08-23T12:51:32.167Z,25.10
2017-08-23T12:53:59.659Z,25.10
2017-08-23T12:56:27.183Z,25.20
2017-08-23T12:58:54.672Z,25.10
2017-08-23T13:01:22.191Z,25.20
2017-08-23T13:03:49.701Z,25.30
2017-08-23T13:06:17.195Z,25.30
2017-08-23T13:08:44.711Z,25.30
2017-08-23T13:11:13.094Z,25.40
2017-08-23T13:13:40.603Z,25.40
2017-08-23T13:16:08.102Z,25.50
2017-08-23T13:18:35.607Z,25.50
2017-08-23T13:21:03.082Z,25.50
2017-08-23T13:23:30.603Z,25.60
2017-08-23T13:25:58.102Z,25.60
2017-08-23T13:28:25.616Z,25.70
2017-08-23T13:30:53.471Z,25.90
2017-08-23T13:33:20.971Z,25.90
2017-08-23T13:35:48.455Z,25.90
2017-08-23T13:38:15.963Z,25.80
2017-08-23T13:40:44.378Z,25.90
2017-08-23T13:43:11.870Z,25.80
2017-08-23T13:45:39.362Z,25.80
2017-08-23T13:48:06.844Z,25.80
2017-08-23T13:50:34.347Z,25.80
2017-08-23T13:53:01.838Z,25.90
2017-08-23T13:55:29.354Z,25.90
2017-08-23T13:57:56.859Z,26.10
2017-08-23T14:00:24.349Z,26.10
2017-08-23T14:02:51.847Z,26.00
2017-08-23T14:05:19.348Z,26.00
2017-08-23T14:07:46.867Z,25.90
2017-08-23T14:10:15.349Z,25.90
2017-08-23T14:12:42.879Z,26.00
2017-08-23T14:15:10.434Z,25.90
2017-08-23T14:17:37.947Z,26.00
2017-08-23T14:20:05.433Z,26.10
2017-08-23T14:22:32.930Z,26.00
2017-08-23T14:25:00.422Z,26.00
2017-08-23T14:27:27.922Z,26.00
2017-08-23T14:29:55.399Z,26.10
2017-08-23T14:32:22.911Z,26.10
2017-08-23T14:34:50.500Z,26.10
2017-08-23T14:37:18.067Z,26.10
2017-08-23T14:39:45.543Z,26.20
2017-08-23T14:42:14.965Z,26.20
2017-08-23T14:44:42.483Z,26.30
2017-08-23T14:47:09.977Z,26.30
2017-08-23T14:49:37.451Z,26.30
2017-08-23T14:52:05.847Z,26.40
2017-08-23T14:54:33.345Z,26.40
2017-08-23T14:57:00.835Z,26.40
2017-08-23T14:59:29.298Z,26.40
2017-08-23T15:01:56.804Z,26.40
2017-08-23T15:04:24.294Z,26.40
2017-08-23T15:06:51.795Z,26.40
2017-08-23T15:09:21.230Z,26.40
2017-08-23T15:11:48.714Z,26.40
2017-08-23T15:14:16.230Z,26.70
2017-08-23T15:16:43.747Z,26.70
2017-08-23T15:19:11.239Z,26.70
2017-08-23T15:21:39.749Z,26.70
2017-08-23T15:24:07.234Z,26.70
2017-08-23T15:26:36.254Z,26.70
2017-08-23T15:29:03.749Z,26.60
2017-08-23T15:31:31.246Z,26.60
2017-08-23T15:33:58.740Z,26.60
2017-08-23T15:36:28.205Z,26.60
2017-08-23T15:38:55.784Z,26.60
2017-08-23T15:41:23.290Z,26.60
2017-08-23T15:43:50.798Z,26.60
2017-08-23T15:46:18.269Z,26.60
2017-08-23T15:48:45.750Z,26.60
2017-08-23T15:51:15.197Z,26.60
2017-08-23T15:53:42.703Z,26.40
2017-08-23T15:56:10.229Z,26.40
2017-08-23T15:58:37.715Z,26.30
2017-08-23T16:01:05.222Z,26.30
2017-08-23T16:03:32.712Z,26.40
2017-08-23T16:06:00.202Z,26.40
2017-08-23T16:08:29.674Z,26.30
2017-08-23T16:10:57.176Z,26.30
2017-08-23T16:13:24.655Z,26.30
2017-08-23T16:15:52.192Z,26.40
2017-08-23T16:18:19.714Z,26.40
2017-08-23T16:20:47.305Z,26.40
2017-08-23T16:23:14.776Z,26.40
2017-08-23T16:25:42.278Z,26.30
2017-08-23T16:28:09.795Z,26.30
2017-08-23T16:30:37.316Z,26.30
2017-08-23T16:33:04.794Z,26.30
2017-08-23T16:35:32.287Z,26.30
2017-08-23T16:37:59.785Z,26.30
2017-08-23T16:40:28.204Z,26.20
2017-08-23T16:42:55.699Z,26.20
2017-08-23T16:45:23.207Z,26.20
2017-08-23T16:47:50.689Z,26.20
2017-08-23T16:50:20.158Z,26.20
2017-08-23T16:52:47.651Z,26.20
2017-08-23T16:55:15.183Z,26.10
2017-08-23T16:57:42.721Z,26.10
2017-08-23T17:00:12.139Z,26.10
2017-08-23T17:02:39.626Z,26.00
2017-08-23T17:05:07.107Z,26.00
2017-08-23T17:07:34.624Z,25.90
2017-08-23T17:10:02.099Z,25.80
2017-08-23T17:12:29.599Z,25.70
2017-08-23T17:14:57.110Z,25.70
2017-08-23T17:17:24.607Z,25.50
2017-08-23T17:19:52.107Z,25.40
2017-08-23T17:22:20.544Z,25.40
2017-08-23T17:24:49.019Z,25.30
2017-08-23T17:27:16.512Z,25.20
2017-08-23T17:29:45.996Z,25.10
2017-08-23T17:32:13.658Z,25.10
2017-08-23T17:34:41.193Z,25.00
2017-08-23T17:37:08.699Z,24.90
2017-08-23T17:39:36.252Z,24.80
2017-08-23T17:42:05.679Z,24.70
2017-08-23T17:44:33.307Z,24.60
2017-08-23T17:47:01.807Z,24.50
2017-08-23T17:49:29.303Z,24.40
2017-08-23T17:51:56.818Z,24.30
2017-08-23T17:54:24.311Z,24.20
2017-08-23T17:56:51.802Z,24.00
2017-08-23T17:59:20.239Z,23.90
2017-08-23T18:01:47.783Z,23.80
2017-08-23T18:04:15.291Z,23.60
2017-08-23T18:06:42.790Z,23.50
2017-08-23T18:09:10.313Z,23.30
2017-08-23T18:11:37.851Z,23.30
2017-08-23T18:14:05.330Z,23.10
2017-08-23T18:16:32.841Z,23.00
2017-08-23T18:19:00.322Z,22.90
2017-08-23T18:21:27.795Z,22.80
2017-08-23T18:23:56.171Z,22.70
2017-08-23T18:26:24.616Z,22.60
2017-08-23T18:28:52.114Z,22.50
2017-08-23T18:31:19.598Z,22.40
2017-08-23T18:33:47.095Z,22.40
2017-08-23T18:36:14.679Z,22.30
2017-08-23T18:38:42.155Z,22.20
2017-08-23T18:41:09.670Z,22.10
2017-08-23T18:43:38.130Z,22.10
2017-08-23T18:46:05.625Z,22.00
2017-08-23T18:48:33.111Z,22.00
2017-08-23T18:51:00.610Z,21.90
2017-08-23T18:53:28.235Z,21.80
2017-08-23T18:55:55.796Z,21.70
2017-08-23T18:58:23.316Z,21.70
2017-08-23T19:00:52.810Z,21.70
2017-08-23T19:03:20.299Z,21.60
2017-08-23T19:05:47.818Z,21.60
2017-08-23T19:08:15.329Z,21.50
2017-08-23T19:10:42.871Z,21.50
2017-08-23T19:13:10.347Z,21.40
2017-08-23T19:15:37.855Z,21.30
2017-08-23T19:18:05.329Z,21.30
2017-08-23T19:20:34.793Z,21.20
2017-08-23T19:23:02.283Z,21.20
2017-08-23T19:25:29.774Z,21.10
2017-08-23T19:27:57.287Z,21.10
2017-08-23T19:30:24.771Z,21.00
2017-08-23T19:32:52.271Z,20.90
2017-08-23T19:35:19.777Z,20.80
2017-08-23T19:37:47.280Z,20.80
2017-08-23T19:40:15.043Z,20.70
2017-08-23T19:42:42.646Z,20.70
2017-08-23T19:45:10.192Z,20.70
2017-08-23T19:47:37.751Z,20.60
2017-08-23T19:50:07.280Z,20.60
2017-08-23T19:52:34.823Z,20.50
2017-08-23T19:55:02.344Z,20.40
2017-08-23T19:57:29.898Z,20.40
2017-08-23T19:59:57.447Z,20.30
2017-08-23T20:02:25.005Z,20.20
2017-08-23T20:04:52.598Z,20.20
2017-08-23T20:07:20.208Z,20.20
2017-08-23T20:09:47.854Z,20.10
2017-08-23T20:12:15.473Z,20.00
2017-08-23T20:14:43.120Z,19.90
2017-08-23T20:17:10.691Z,19.90
2017-08-23T20:19:38.298Z,19.80
2017-08-23T20:22:05.874Z,19.80
2017-08-23T20:24:33.413Z,19.70
2017-08-23T20:27:01.899Z,19.70
2017-08-23T20:29:29.455Z,19.60
2017-08-23T20:31:56.992Z,19.50
2017-08-23T20:34:24.548Z,19.50
2017-08-23T20:36:52.074Z,19.50
2017-08-23T20:39:19.697Z,19.50
2017-08-23T20:41:47.245Z,19.40
2017-08-23T20:44:14.834Z,19.40
2017-08-23T20:46:42.458Z,19.40
2017-08-23T20:49:10.280Z,19.40
2017-08-23T20:54:12.825Z,19.30
2017-08-23T20:56:40.376Z,19.20
2017-08-23T20:59:07.947Z,19.10
2017-08-23T21:01:35.505Z,19.10
2017-08-23T21:04:03.043Z,19.10
2017-08-23T21:06:30.647Z,19.10
2017-08-23T21:08:58.191Z,19.00
2017-08-23T21:11:25.794Z,19.00
2017-08-23T21:13:54.358Z,19.00
2017-08-23T21:16:23.963Z,19.00
2017-08-23T21:18:52.467Z,18.90
2017-08-23T21:21:20.013Z,18.80
2017-08-23T21:23:47.592Z,18.70
2017-08-23T21:26:15.159Z,18.60
2017-08-23T21:28:42.720Z,18.60
2017-08-23T21:31:10.288Z,18.60
2017-08-23T21:33:37.869Z,18.60
2017-08-23T21:36:05.739Z,18.60
2017-08-23T21:38:33.292Z,18.60
2017-08-23T21:41:01.843Z,18.50
2017-08-23T21:43:29.368Z,18.50
2017-08-23T21:45:56.976Z,18.40
2017-08-23T21:48:24.520Z,18.30
2017-08-23T21:50:52.051Z,18.20
2017-08-23T21:53:19.626Z,18.20
2017-08-23T21:58:21.074Z,18.10
2017-08-23T22:00:48.677Z,18.10
2017-08-23T22:03:16.367Z,18.00
2017-08-23T22:05:43.922Z,18.00
2017-08-23T22:08:11.469Z,18.00
2017-08-23T22:10:39.024Z,17.90
2017-08-23T22:13:06.639Z,17.90
2017-08-23T22:15:34.217Z,17.90
2017-08-23T22:18:01.765Z,17.90
2017-08-23T22:20:31.276Z,17.80
2017-08-23T22:22:58.793Z,17.90
2017-08-23T22:25:26.313Z,17.90
2017-08-23T22:27:53.904Z,17.90
2017-08-23T22:30:21.471Z,17.90
2017-08-23T22:32:49.009Z,17.80
2017-08-23T22:35:16.558Z,17.80
2017-08-23T22:37:44.085Z,17.80
2017-08-23T22:40:11.660Z,17.80
2017-08-23T22:42:39.184Z,17.80
2017-08-23T22:45:06.806Z,17.90
2017-08-23T22:47:34.390Z,17.90
2017-08-23T22:50:01.928Z,17.90
2017-08-23T22:52:29.442Z,17.90
2017-08-23T22:54:57.047Z,18.00
2017-08-23T22:57:24.574Z,18.00
2017-08-23T22:59:52.067Z,17.90
2017-08-23T23:02:19.580Z,17.90
2017-08-23T23:04:47.063Z,17.80
2017-08-23T23:07:14.570Z,17.70
2017-08-23T23:09:42.062Z,17.70
2017-08-23T23:12:09.770Z,17.70
2017-08-23T23:14:37.358Z,17.60
2017-08-23T23:17:04.859Z,17.60
2017-08-23T23:19:33.290Z,17.60
2017-08-23T23:22:00.791Z,17.50
2017-08-23T23:24:28.273Z,17.50
2017-08-23T23:26:55.793Z,17.40
2017-08-23T23:29:23.282Z,17.40
2017-08-23T23:31:50.790Z,17.30
2017-08-23T23:34:18.274Z,17.30
2017-08-23T23:36:45.778Z,17.30
2017-08-23T23:39:13.262Z,17.20
2017-08-23T23:41:40.780Z,17.20
2017-08-23T23:44:08.323Z,17.10
2017-08-23T23:46:35.810Z,17.10
2017-08-23T23:49:03.311Z,17.00
2017-08-23T23:51:30.794Z,17.00
2017-08-23T23:53:58.278Z,17.00
2017-08-23T23:56:25.798Z,16.90
2017-08-23T23:58:53.295Z,16.90
